Portada
METAR-TAF:

METAR-TAF

Aeroports :

Base aèria Alcantarilla

Múrcia, Espanya

latitud: 37-57N, longitud: 001-14W, altitud: 75 m

Observació

L'informe es va fer fa 44 minuts, a les 17:00 UTC
Vent 7 kt del Sud-Est
Temperatura 21°C
Humitat 56%
Pressió 1013 hPa
Visibilitat 10 km o més
Escasses núvols a una alçada de 4500 ft

METAR: LERI 191700Z 14007KT 9999 FEW045 21/12 Q1013 NOSIG

Hora: 19:44 (17:44 UTC)

Pronòstic

L'informe es va fer fa 3 hores i 44 minuts, a les 14:00 UTC
Pronòstic vàlid del 19 a les 15 UTC al 19 a les 24 UTC
Vent 4 kt del Est
Visibilitat 10 km o més
Núvols disperses a una alçada de 3000 ft
Probabilitat 40% :
Temporalment
l' 19 a les 23 UTC al 19 a les 24 UTC
Visibilitat: 4000 m
Núvols disperses a una alçada de 2000 ft, Cumulonimbus.
xàfecs de pluja

TAF: LERI 191400Z 1915/1924 08004KT 9999 SCT030 PROB40 TEMPO 1923/1924 4000 SHRA SCT020CB

Observacions i pronòstics meteorològics de més de 4000 aeroports (METAR i TAF).

Les estacions disponibles són els punts grocs i vermells al mapa.

Posi el ratolí al punt desitjat per veure el nom de l'estació.

Feu clic per veure les observacions i els pronòstics meteorològics.

Per canviar el mapa: feu clic els botons verds amb una creu de color negre per apropar; al botó verd amb un guió per allunyar la imatge; o en les fletxes verdes per a mapes adjacents.


METAR-TAF: